Grissom ARB Airport
KGUS : now visible

Airfield :











YOU CAN JOIN US ON...

 
LOGIN :

Register | Disclaimer

   EN    FR    IT 

 









Legend :    VFR   Marginal VFR   IFR   Intensive IFR   Very Intensive IFR
Visi :
Ceiling :
>= 8 km
>= 3000ft
5 to 8 km
1000 to 3000 ft
1500m to 5 km
500 to 1000 ft
800 to 1500m
200 to 500 ft
< 800m
< 200 ft
Symbols :   Thunderstorms  Fog  Heavy snow  Heavy precipitations  Wind > 20 kt






- Airport Elevation : 812 ft


KGUS - Grissom ARB

CURRENT METAR :
  • 212256Z AUTO 00000KT 10SM BKN047 14/12 A3017 RMK AO2 SLP220 T01350119 $

EXPIRED METARs :
  • 212156Z AUTO 09005KT 10SM CLR 14/12 A3018 RMK AO2 SLP223 T01370116 $
  • 212056Z AUTO 11003KT 10SM SCT085 14/11 A3019 RMK AO2 SLP227 T01390105 56004 $

TAF COR TAF KGUS
Valid from the 21 at 22:00 until the 23 at 03:00 UTC


212200Z 2122/2303 VRB06KT 9999 SCT085 QNH3016INS
BECMG 2201/2202 VRB06KT 8000 -DZ BR BKN011 QNH3014INS
BECMG 2208/2209 VRB06KT 8000 -RA BKN004 QNH3012INS
BECMG 2215/2216 19010G15KT 9999 NSW OVC004 510043 QNH3011INS
BECMG 2217/2218 19010G15KT 9999 SCT020 QNH3004INS
BECMG 2220/2221 20015G20KT 9999 SCT026 510032 QNH3003INS
BECMG 2223/2224 18009KT 9999 SCT018 QNH3000INS TX23/2220Z TN11/2201Z LAST NO AMDS AFT 2203 NEXT 2213
KZAU FIR / North America



MET'MAP, your aeronautical weather chart ! - Copyright ORBIFLY December 2007 - Disclaimer

ORBIFLY MET'MAP TEAM :

Programming & Development : Alexandra Zaïnal
Concept & original design : Baudouin d'Aumeries
Assistance for programming : Marc-Olivier Méhu
Technical & hardware support : Manuel Goepfert

Contact : metmap@orbifly.com




SOURCES & CREDITS :

   NOAA       Earth
Advisory